Wheeling, Missouri
Current Conditions -  °F | °C
As of 5:55 PM on Wednesday 26 Nov 2014 (Local Time) from KMHL Reporting Station
Overcast Overcast  
Wind Chill: 28°   Ceiling: 1400
Heat Index: 37°   Visibility: 10mi
Dew Point: 32°   Wind: 17mph
Humidity: 81%   Direction: 310°NW
Pressure: 30.1"   Gusts: 30mph
Location:  39.79°N, 93.39°W
Report Text: KMHL 262355Z AUTO 31015G26KT 10SM OVC014 03/00 A3010 RMK AO2
Loading
Personal Weather Stations






























Interactive Weather Map New forecast layout! Learn more

10-Day Weather Forecast

Advertisements
Track Severe Weather on mobile